Yellowstone Airport
KWYS : rendu visible

Aérodrome :











RETROUVEZ-NOUS SUR...

 
LOGIN :

S'inscrire | Disclaimer

   EN    FR    IT 

 









Légende :    VFR   VFR Marginal   IFR   IFR Intensif   IFR Très Intensif
Visi : 
Plafond : 
>= 8 km
>= 3000ft
5 à 8 km
1000 à 3000 ft
1500m à 5 km
500 à 1000 ft
800 à 1500m
200 à 500 ft
< 800m
< 200 ft
Symboles :   Orages  Brouillard  Fortes neiges  Fortes précipitations  Vent > 20 kt






- Altitude de l'aérodrome : 6649 ft


KWYS - Yellowstone

DERNIER METAR :
  • 210045Z AUTO 02010KT 10SM FEW110 M04/M10 A2992 RMK AO2

METARs EXPIRÉS :
  • 210030Z AUTO 02011G16KT 10SM BKN110 M04/M10 A2992 RMK AO2
  • 210010Z AUTO 02008G15KT 10SM BKN110 M04/M10 A2991 RMK AO2
  • 202350Z AUTO 02013KT 10SM SCT060 SCT110 M03/M10 A2991 RMK AO2
  • 202330Z AUTO 02015KT 10SM OVC055 M03/M10 A2990 RMK AO2
  • 202310Z AUTO 01015G22KT 10SM OVC055 M03/M10 A2990 RMK AO2
  • 202250Z AUTO 02015KT 10SM OVC050 M03/M10 A2989 RMK AO2
  • 202230Z AUTO 01016KT 10SM OVC050 M02/M10 A2988 RMK AO2
  • 202210Z AUTO 02013G19KT 10SM OVC050 M02/M10 A2988 RMK AO2

TAF KWYS
Valide du 21 à 00h jusqu'au 22 à 00h UTC


202326Z 2100/2124 01015KT P6SM BKN050
FM210300 02007KT P6SM SCT100 SCT200
FM210800 VRB06KT P6SM FEW100



MET'MAP, la Météo Aéronautique d'un coup d'oeil ! - Copyright ORBIFLY Décembre 2007 - Disclaimer

ORBIFLY MET'MAP TEAM :

Programmation & Développement : Alexandra Zaïnal
Conception & Développement : Baudouin d'Aumeries
Co-Programmation & Développement : Marc-Olivier Méhu
Soutien technique & logistique : Manuel Goepfert

Contact : metmap@orbifly.com




SOURCES & CREDITS :

   NOAA       Earth
Advisory